createdAt,value
2022-09-12T00:00:08.181Z,6.80
2022-09-12T00:02:36.130Z,7.60
2022-09-12T00:05:07.205Z,7.17
2022-09-12T00:07:35.564Z,7.70
2022-09-12T00:10:03.486Z,7.60
2022-09-12T00:12:31.515Z,7.70
2022-09-12T00:15:00.425Z,7.00
2022-09-12T00:17:29.869Z,6.73
2022-09-12T00:19:58.876Z,7.33
2022-09-12T00:22:26.916Z,8.00
2022-09-12T00:24:54.888Z,7.10
2022-09-12T00:27:22.819Z,7.37
2022-09-12T00:29:50.815Z,7.07
2022-09-12T00:32:18.787Z,6.17
2022-09-12T00:34:48.777Z,7.00
2022-09-12T00:37:16.754Z,7.60
2022-09-12T00:39:44.797Z,7.40
2022-09-12T00:42:13.285Z,7.17
2022-09-12T00:44:48.600Z,7.60
2022-09-12T00:47:22.306Z,7.70
2022-09-12T00:49:57.593Z,7.30
2022-09-12T00:52:30.562Z,6.90
2022-09-12T00:55:03.848Z,6.80
2022-09-12T00:57:37.116Z,6.97
2022-09-12T01:00:11.625Z,7.23
2022-09-12T01:02:39.782Z,8.07
2022-09-12T01:05:11.487Z,6.90
2022-09-12T01:07:40.786Z,7.17
2022-09-12T01:10:10.537Z,7.70
2022-09-12T01:12:41.411Z,8.13
2022-09-12T01:15:10.304Z,7.60
2022-09-12T01:17:51.477Z,7.40
2022-09-12T01:20:45.449Z,7.60
2022-09-12T01:23:34.123Z,7.67
2022-09-12T01:26:15.823Z,8.20
2022-09-12T01:29:09.710Z,7.53
2022-09-12T01:31:47.638Z,7.97
2022-09-12T01:34:26.444Z,8.70
2022-09-12T01:37:06.276Z,7.47
2022-09-12T01:39:41.754Z,7.83
2022-09-12T01:42:19.172Z,7.97
2022-09-12T01:44:55.000Z,7.97
2022-09-12T01:47:30.700Z,7.07
2022-09-12T01:50:02.900Z,6.93
2022-09-12T01:52:35.721Z,6.17
2022-09-12T01:55:11.387Z,7.43
2022-09-12T01:57:44.422Z,7.70
2022-09-12T02:00:13.805Z,7.97
2022-09-12T02:02:50.808Z,7.80
2022-09-12T02:05:24.939Z,7.80
2022-09-12T02:07:54.929Z,7.43
2022-09-12T02:10:30.407Z,7.67
2022-09-12T02:13:05.423Z,7.20
2022-09-12T02:15:38.384Z,7.30
2022-09-12T02:18:09.521Z,7.53
2022-09-12T02:20:54.872Z,7.83
2022-09-12T02:23:27.622Z,7.93
2022-09-12T02:25:59.001Z,7.50
2022-09-12T02:28:31.177Z,7.43
2022-09-12T02:31:09.153Z,7.73
2022-09-12T02:33:46.432Z,8.37
2022-09-12T02:36:24.570Z,7.87
2022-09-12T02:38:52.793Z,8.07
2022-09-12T02:41:22.799Z,8.27
2022-09-12T02:43:52.805Z,8.47
2022-09-12T02:46:25.536Z,7.13
2022-09-12T02:48:55.981Z,7.07
2022-09-12T02:51:24.403Z,8.17
2022-09-12T02:53:53.210Z,7.30
2022-09-12T02:56:27.464Z,6.70
2022-09-12T02:58:58.579Z,7.67
2022-09-12T03:01:41.575Z,7.43
2022-09-12T03:04:32.903Z,6.60
2022-09-12T03:07:14.188Z,7.33
2022-09-12T03:09:48.999Z,7.77
2022-09-12T03:12:42.078Z,7.30
2022-09-12T03:15:29.565Z,7.40
2022-09-12T03:18:10.893Z,7.53
2022-09-12T03:20:50.992Z,6.43
2022-09-12T03:23:28.036Z,7.93
2022-09-12T03:26:00.283Z,8.33
2022-09-12T03:28:28.573Z,7.53
2022-09-12T03:30:56.684Z,7.33
2022-09-12T03:33:26.484Z,7.43
2022-09-12T03:35:56.502Z,7.20
2022-09-12T03:38:24.596Z,7.63
2022-09-12T03:40:54.789Z,7.20
2022-09-12T03:43:23.104Z,7.20
2022-09-12T03:45:52.971Z,8.40
2022-09-12T03:48:20.914Z,7.63
2022-09-12T03:50:48.894Z,7.50
2022-09-12T03:53:18.535Z,8.03
2022-09-12T03:55:46.488Z,7.40
2022-09-12T03:58:14.488Z,9.23
2022-09-12T04:00:43.115Z,7.37
2022-09-12T04:03:11.144Z,7.37
2022-09-12T04:05:39.161Z,7.90
2022-09-12T04:08:07.205Z,8.53
2022-09-12T04:10:36.539Z,8.50
2022-09-12T04:13:04.700Z,7.60
2022-09-12T04:15:32.630Z,8.90
2022-09-12T04:18:05.755Z,8.03
2022-09-12T04:20:34.123Z,8.47
2022-09-12T04:23:02.061Z,7.20
2022-09-12T04:25:31.412Z,7.80
2022-09-12T04:28:00.739Z,7.73
2022-09-12T04:30:28.654Z,7.63
2022-09-12T04:32:56.603Z,8.33
2022-09-12T04:35:24.554Z,8.10
2022-09-12T04:37:52.621Z,9.23
2022-09-12T04:40:20.917Z,8.37
2022-09-12T04:42:48.797Z,8.00
2022-09-12T04:45:18.294Z,7.93
2022-09-12T04:47:46.774Z,8.47
2022-09-12T04:50:15.045Z,7.33
2022-09-12T04:52:43.433Z,7.73
2022-09-12T04:55:11.429Z,8.40
2022-09-12T04:57:39.386Z,8.47
2022-09-12T05:00:08.838Z,7.57
2022-09-12T05:02:38.278Z,8.07
2022-09-12T05:05:07.259Z,8.03
2022-09-12T05:07:35.545Z,6.80
2022-09-12T05:10:04.701Z,6.73
2022-09-12T05:12:32.945Z,6.73
2022-09-12T05:15:00.858Z,7.13
2022-09-12T05:17:30.380Z,7.47
2022-09-12T05:20:00.736Z,6.50
2022-09-12T05:22:28.824Z,6.50
2022-09-12T05:24:56.767Z,7.27
2022-09-12T05:27:24.739Z,6.63
2022-09-12T05:29:52.823Z,6.77
2022-09-12T05:32:20.823Z,6.50
2022-09-12T05:34:48.748Z,7.23
2022-09-12T05:37:18.068Z,6.73
2022-09-12T05:39:46.088Z,6.73
2022-09-12T05:42:14.354Z,6.30
2022-09-12T05:44:42.358Z,6.60
2022-09-12T05:47:12.734Z,7.17
2022-09-12T05:49:40.619Z,6.10
2022-09-12T05:52:08.719Z,6.90
2022-09-12T05:54:38.073Z,6.40
2022-09-12T05:57:06.309Z,5.87
2022-09-12T05:59:34.184Z,7.20
2022-09-12T06:02:02.198Z,7.10
2022-09-12T06:04:30.120Z,7.10
2022-09-12T06:07:00.864Z,6.60
2022-09-12T06:09:28.874Z,6.27
2022-09-12T06:11:58.239Z,6.33
2022-09-12T06:14:26.141Z,6.50
2022-09-12T06:16:54.653Z,6.30
2022-09-12T06:19:23.760Z,6.13
2022-09-12T06:21:52.730Z,6.67
2022-09-12T06:24:21.913Z,6.60
2022-09-12T06:26:52.723Z,6.80
2022-09-12T06:29:22.197Z,6.27
2022-09-12T06:31:50.100Z,6.80
2022-09-12T06:34:18.079Z,6.90
2022-09-12T06:36:47.886Z,6.47
2022-09-12T06:39:17.504Z,7.40
2022-09-12T06:41:46.285Z,6.23
2022-09-12T06:44:16.722Z,7.53
2022-09-12T06:46:46.781Z,6.13
2022-09-12T06:49:15.757Z,6.73
2022-09-12T06:51:43.766Z,6.27
2022-09-12T06:54:14.491Z,6.17
2022-09-12T06:56:42.641Z,5.90
2022-09-12T06:59:10.881Z,6.13
2022-09-12T07:01:40.214Z,6.50
2022-09-12T07:04:10.162Z,6.30
2022-09-12T07:06:40.678Z,6.57
2022-09-12T07:09:10.933Z,6.77
2022-09-12T07:11:40.269Z,6.57
2022-09-12T07:14:11.189Z,6.17
2022-09-12T07:16:39.533Z,6.33
2022-09-12T07:19:09.916Z,5.87
2022-09-12T07:21:40.312Z,5.73
2022-09-12T07:24:09.961Z,6.00
2022-09-12T07:26:38.859Z,6.80
2022-09-12T07:29:35.499Z,6.37
2022-09-12T07:31:55.052Z,6.47
2022-09-12T07:34:24.342Z,5.83
2022-09-12T07:36:52.281Z,6.73
2022-09-12T07:39:20.232Z,6.30
2022-09-12T07:41:48.246Z,6.07
2022-09-12T07:44:16.181Z,7.07
2022-09-12T07:46:44.131Z,6.83
2022-09-12T07:49:13.690Z,7.03
2022-09-12T07:51:43.448Z,6.63
2022-09-12T07:54:11.926Z,6.93
2022-09-12T07:56:40.930Z,6.47
2022-09-12T07:59:09.062Z,6.83
2022-09-12T08:01:37.034Z,6.30
2022-09-12T08:04:05.314Z,6.60
2022-09-12T08:06:36.075Z,6.47
2022-09-12T08:09:07.815Z,6.60
2022-09-12T08:11:36.239Z,6.33
2022-09-12T08:14:05.799Z,6.57
2022-09-12T08:16:34.810Z,6.37
2022-09-12T08:19:04.181Z,6.70
2022-09-12T08:21:33.558Z,6.03
2022-09-12T08:24:03.718Z,6.80
2022-09-12T08:26:34.750Z,6.23
2022-09-12T08:29:03.822Z,5.57
2022-09-12T08:31:36.480Z,6.37
2022-09-12T08:34:06.122Z,6.87
2022-09-12T08:36:34.524Z,6.23
2022-09-12T08:39:05.100Z,5.70
2022-09-12T08:41:38.985Z,4.77
2022-09-12T08:44:24.199Z,6.17
2022-09-12T08:47:09.730Z,5.67
2022-09-12T08:49:46.594Z,5.57
2022-09-12T08:52:21.432Z,4.90
2022-09-12T08:54:50.142Z,5.37
2022-09-12T08:57:19.385Z,4.67
2022-09-12T08:59:48.437Z,4.10
2022-09-12T09:02:38.361Z,4.77
2022-09-12T09:05:16.284Z,4.60
2022-09-12T09:08:05.160Z,4.43
2022-09-12T09:10:42.777Z,5.10
2022-09-12T09:13:37.746Z,5.07
2022-09-12T09:16:11.641Z,4.93
2022-09-12T09:18:40.346Z,4.50
2022-09-12T09:21:21.050Z,5.23
2022-09-12T09:23:54.888Z,5.23
2022-09-12T09:26:27.938Z,4.90
2022-09-12T09:29:00.497Z,5.30
2022-09-12T09:31:34.312Z,5.17
2022-09-12T09:34:02.711Z,4.47
2022-09-12T09:36:44.094Z,4.80
2022-09-12T09:39:23.636Z,4.40
2022-09-12T09:42:03.041Z,4.67
2022-09-12T09:44:32.756Z,4.07
2022-09-12T09:47:02.072Z,4.20
2022-09-12T09:49:33.115Z,4.43
2022-09-12T09:52:03.558Z,5.20
2022-09-12T09:54:37.661Z,4.63
2022-09-12T09:57:05.774Z,4.10
2022-09-12T09:59:35.416Z,4.30
2022-09-12T10:02:23.987Z,4.70
2022-09-12T10:04:56.336Z,4.60
2022-09-12T10:07:25.808Z,4.70
2022-09-12T10:10:07.777Z,4.63
2022-09-12T10:12:35.675Z,4.83
2022-09-12T10:15:19.170Z,4.70
2022-09-12T10:17:49.442Z,4.40
2022-09-12T10:20:35.780Z,4.33
2022-09-12T10:23:20.853Z,5.03
2022-09-12T10:25:49.576Z,4.73
2022-09-12T10:28:27.194Z,4.37
2022-09-12T10:30:57.779Z,4.73
2022-09-12T10:33:27.249Z,3.97
2022-09-12T10:35:56.201Z,4.20
2022-09-12T10:38:27.903Z,3.70
2022-09-12T10:41:01.402Z,3.80
2022-09-12T10:43:35.997Z,3.60
2022-09-12T10:46:23.909Z,2.97
2022-09-12T10:48:53.021Z,3.20
2022-09-12T10:51:29.116Z,3.67
2022-09-12T10:53:59.885Z,3.50
2022-09-12T10:56:32.627Z,3.80
2022-09-12T10:59:19.954Z,3.43
2022-09-12T11:01:51.648Z,3.50
2022-09-12T11:04:28.435Z,3.20
2022-09-12T11:07:27.057Z,3.87
2022-09-12T11:10:03.290Z,2.90
2022-09-12T11:12:40.159Z,3.17
2022-09-12T11:15:26.729Z,2.50
2022-09-12T11:18:02.174Z,2.90
2022-09-12T11:20:59.054Z,2.80
2022-09-12T11:23:41.409Z,2.90
2022-09-12T11:26:24.205Z,3.10
2022-09-12T11:29:03.384Z,2.73
2022-09-12T11:31:59.752Z,2.60
2022-09-12T11:34:38.885Z,2.43
2022-09-12T11:37:29.207Z,2.80
2022-09-12T11:40:05.811Z,2.63
2022-09-12T11:42:40.390Z,2.87
2022-09-12T11:45:16.545Z,2.83
2022-09-12T11:47:48.110Z,2.40
2022-09-12T11:50:26.073Z,2.40
2022-09-12T11:52:57.742Z,2.23
2022-09-12T11:55:30.755Z,2.27
2022-09-12T11:58:00.010Z,2.07
2022-09-12T12:00:33.471Z,2.10
2022-09-12T12:03:09.689Z,2.20
2022-09-12T12:05:44.493Z,2.40
2022-09-12T12:08:14.636Z,2.20
2022-09-12T12:10:44.846Z,2.30
2022-09-12T12:13:20.148Z,2.50
2022-09-12T12:15:51.874Z,2.40
2022-09-12T12:18:23.227Z,2.20
2022-09-12T12:20:53.176Z,2.00
2022-09-12T12:23:28.558Z,1.90
2022-09-12T12:25:58.100Z,2.03
2022-09-12T12:29:01.874Z,2.20
2022-09-12T12:31:30.103Z,2.20
2022-09-12T12:34:24.086Z,1.90
2022-09-12T12:36:53.339Z,2.10
2022-09-12T12:40:04.324Z,1.90
2022-09-12T12:43:19.911Z,1.70
2022-09-12T12:46:09.808Z,2.00
2022-09-12T12:49:10.809Z,1.80
2022-09-12T12:51:50.228Z,1.80
2022-09-12T12:54:53.371Z,1.80
2022-09-12T12:57:29.839Z,1.70
2022-09-12T13:00:02.246Z,1.50
2022-09-12T13:02:33.697Z,1.60
2022-09-12T13:05:06.055Z,1.53
2022-09-12T13:07:37.377Z,1.50
2022-09-12T13:10:06.987Z,1.40
2022-09-12T13:12:44.110Z,1.33
2022-09-12T13:15:45.957Z,1.57
2022-09-12T13:18:17.935Z,1.50
2022-09-12T13:20:51.630Z,1.60
2022-09-12T13:23:27.694Z,1.40
2022-09-12T13:25:57.034Z,1.60
2022-09-12T13:28:27.619Z,1.50
2022-09-12T13:31:03.873Z,1.40
2022-09-12T13:33:37.425Z,1.60
2022-09-12T13:36:32.032Z,1.40
2022-09-12T13:39:15.387Z,1.30
2022-09-12T13:42:12.391Z,1.50
2022-09-12T13:44:45.746Z,1.40
2022-09-12T13:47:17.453Z,1.37
2022-09-12T13:49:46.978Z,1.53
2022-09-12T13:52:20.678Z,1.40
2022-09-12T13:54:53.170Z,1.40
2022-09-12T13:57:32.868Z,1.40
2022-09-12T14:00:07.788Z,1.40
2022-09-12T14:02:37.723Z,1.47
2022-09-12T14:05:20.127Z,1.50
2022-09-12T14:07:56.314Z,1.67
2022-09-12T14:10:35.505Z,1.50
2022-09-12T14:13:06.084Z,1.60
2022-09-12T14:15:38.031Z,1.50
2022-09-12T14:18:08.729Z,1.50
2022-09-12T14:20:39.498Z,1.70
2022-09-12T14:23:22.452Z,1.60
2022-09-12T14:25:52.132Z,1.53
2022-09-12T14:28:23.534Z,1.70
2022-09-12T14:31:06.580Z,1.80
2022-09-12T14:33:47.799Z,1.80
2022-09-12T14:36:23.437Z,1.93
2022-09-12T14:38:53.871Z,1.70
2022-09-12T14:41:28.958Z,1.90
2022-09-12T14:44:00.497Z,1.90
2022-09-12T14:46:34.663Z,2.10
2022-09-12T14:49:09.210Z,2.00
2022-09-12T14:51:40.153Z,2.00
2022-09-12T14:54:28.122Z,2.00
2022-09-12T14:56:58.711Z,2.00
2022-09-12T14:59:31.441Z,1.80
2022-09-12T15:02:28.617Z,1.90
2022-09-12T15:05:17.840Z,1.90
2022-09-12T15:07:53.763Z,2.00
2022-09-12T15:10:25.520Z,1.90
2022-09-12T15:13:11.941Z,1.97
2022-09-12T15:15:41.462Z,1.90
2022-09-12T15:18:10.858Z,1.90
2022-09-12T15:20:40.310Z,1.67
2022-09-12T15:23:15.872Z,1.63
2022-09-12T15:25:43.804Z,1.80
2022-09-12T15:28:19.606Z,1.60
2022-09-12T15:30:50.447Z,1.70
2022-09-12T15:33:22.892Z,1.70
2022-09-12T15:35:51.436Z,1.60
2022-09-12T15:38:24.280Z,1.50
2022-09-12T15:40:54.779Z,1.50
2022-09-12T15:43:23.797Z,1.60
2022-09-12T15:45:52.490Z,1.60
2022-09-12T15:48:21.912Z,1.70
2022-09-12T15:50:49.827Z,1.50
2022-09-12T15:53:18.552Z,1.60
2022-09-12T15:55:46.656Z,1.50
2022-09-12T15:58:14.514Z,1.60
2022-09-12T16:00:42.411Z,1.60
2022-09-12T16:03:21.116Z,1.90
2022-09-12T16:05:50.640Z,1.80
2022-09-12T16:08:18.550Z,1.70
2022-09-12T16:10:49.559Z,1.90
2022-09-12T16:13:17.503Z,1.80
2022-09-12T16:15:45.462Z,1.80
2022-09-12T16:18:13.936Z,1.80
2022-09-12T16:20:41.960Z,1.70
2022-09-12T16:23:12.460Z,1.70
2022-09-12T16:25:40.402Z,2.00
2022-09-12T16:28:08.679Z,1.80
2022-09-12T16:30:37.101Z,1.57
2022-09-12T16:33:05.433Z,1.73
2022-09-12T16:35:33.791Z,1.63
2022-09-12T16:38:02.166Z,1.73
2022-09-12T16:40:31.733Z,1.63
2022-09-12T16:42:59.728Z,1.70
2022-09-12T16:45:27.641Z,1.70
2022-09-12T16:47:55.623Z,1.70
2022-09-12T16:50:23.818Z,1.70
2022-09-12T16:52:51.769Z,1.60
2022-09-12T16:55:19.710Z,1.70
2022-09-12T16:57:49.450Z,1.50
2022-09-12T17:00:17.710Z,1.80
2022-09-12T17:02:45.768Z,1.60
2022-09-12T17:05:15.889Z,1.60
2022-09-12T17:07:43.896Z,1.50
2022-09-12T17:10:11.831Z,1.63
2022-09-12T17:12:39.700Z,1.70
2022-09-12T17:15:10.009Z,1.70
2022-09-12T17:17:38.124Z,1.87
2022-09-12T17:20:06.588Z,1.70
2022-09-12T17:22:34.859Z,1.63
2022-09-12T17:25:02.769Z,1.90
2022-09-12T17:27:30.667Z,1.53
2022-09-12T17:29:58.644Z,1.80
2022-09-12T17:32:27.954Z,1.70
2022-09-12T17:34:55.886Z,1.70
2022-09-12T17:37:23.769Z,1.70
2022-09-12T17:39:51.741Z,1.70
2022-09-12T17:42:20.819Z,1.77
2022-09-12T17:44:48.710Z,1.80
2022-09-12T17:47:16.625Z,1.63
2022-09-12T17:49:45.893Z,1.70
2022-09-12T17:52:13.770Z,1.63
2022-09-12T17:54:41.684Z,1.80
2022-09-12T17:57:09.584Z,1.90
2022-09-12T17:59:37.524Z,1.70
2022-09-12T18:02:13.417Z,1.60
2022-09-12T18:04:42.025Z,1.70
2022-09-12T18:07:11.391Z,1.80
2022-09-12T18:09:40.742Z,1.70
2022-09-12T18:12:09.132Z,1.80
2022-09-12T18:14:37.707Z,1.90
2022-09-12T18:17:07.014Z,1.60
2022-09-12T18:19:35.825Z,1.40
2022-09-12T18:22:05.984Z,1.50
2022-09-12T18:24:35.475Z,1.60
2022-09-12T18:27:04.073Z,1.30
2022-09-12T18:29:31.957Z,1.60
2022-09-12T18:31:59.870Z,1.60
2022-09-12T18:34:28.181Z,1.60
2022-09-12T18:36:56.071Z,1.50
2022-09-12T18:39:27.466Z,1.50
2022-09-12T18:41:57.404Z,1.47
2022-09-12T18:44:25.282Z,1.33
2022-09-12T18:46:53.399Z,1.40
2022-09-12T18:49:21.535Z,1.40
2022-09-12T18:51:49.468Z,1.40
2022-09-12T18:54:17.887Z,1.30
2022-09-12T18:56:45.948Z,1.33
2022-09-12T18:59:15.228Z,1.40
2022-09-12T19:01:43.700Z,1.30
2022-09-12T19:04:16.584Z,1.30
2022-09-12T19:06:46.482Z,1.37
2022-09-12T19:09:16.200Z,1.40
2022-09-12T19:11:49.886Z,1.23
2022-09-12T19:14:22.598Z,1.30
2022-09-12T19:16:50.814Z,1.63
2022-09-12T19:19:18.964Z,1.60
2022-09-12T19:21:47.156Z,1.53
2022-09-12T19:24:16.585Z,1.40
2022-09-12T19:26:44.795Z,1.70
2022-09-12T19:29:14.402Z,1.50
2022-09-12T19:31:43.932Z,1.60
2022-09-12T19:34:13.262Z,1.40
2022-09-12T19:36:46.712Z,1.40
2022-09-12T19:39:16.419Z,1.50
2022-09-12T19:41:45.007Z,1.40
2022-09-12T19:44:13.312Z,1.40
2022-09-12T19:46:41.712Z,1.40
2022-09-12T19:49:13.339Z,1.60
2022-09-12T19:51:41.870Z,1.40
2022-09-12T19:54:09.958Z,1.60
2022-09-12T19:56:38.349Z,1.20
2022-09-12T19:59:06.304Z,1.30
2022-09-12T20:01:37.046Z,1.30
2022-09-12T20:04:06.543Z,1.50
2022-09-12T20:06:36.796Z,1.30
2022-09-12T20:09:05.347Z,1.37
2022-09-12T20:11:33.283Z,1.40
2022-09-12T20:14:01.334Z,1.40
2022-09-12T20:16:30.032Z,1.47
2022-09-12T20:19:00.305Z,1.40
2022-09-12T20:21:31.613Z,1.30
2022-09-12T20:24:06.264Z,1.37
2022-09-12T20:26:34.941Z,1.20
2022-09-12T20:29:03.328Z,1.20
2022-09-12T20:31:32.068Z,1.10
2022-09-12T20:34:00.540Z,1.20
2022-09-12T20:36:28.921Z,1.30
2022-09-12T20:39:00.143Z,1.10
2022-09-12T20:41:31.725Z,1.00
2022-09-12T20:43:59.876Z,1.20
2022-09-12T20:46:29.169Z,1.20
2022-09-12T20:48:58.535Z,1.30
2022-09-12T20:51:26.911Z,1.20
2022-09-12T20:53:55.514Z,1.20
2022-09-12T20:56:24.228Z,1.10
2022-09-12T20:58:54.058Z,1.13
2022-09-12T21:01:22.901Z,1.20
2022-09-12T21:03:51.319Z,1.00
2022-09-12T21:06:20.251Z,1.20
2022-09-12T21:08:49.640Z,1.20
2022-09-12T21:11:18.900Z,1.10
2022-09-12T21:13:46.946Z,1.33
2022-09-12T21:16:18.187Z,1.30
2022-09-12T21:18:46.413Z,1.40
2022-09-12T21:21:16.359Z,1.30
2022-09-12T21:23:44.280Z,1.20
2022-09-12T21:26:12.438Z,1.30
2022-09-12T21:28:40.378Z,1.20
2022-09-12T21:31:08.652Z,1.30
2022-09-12T21:33:38.010Z,1.00
2022-09-12T21:36:07.802Z,1.10
2022-09-12T21:38:35.934Z,1.27
2022-09-12T21:41:06.618Z,1.30
2022-09-12T21:43:34.520Z,1.17
2022-09-12T21:46:03.053Z,1.30
2022-09-12T21:48:31.408Z,1.20
2022-09-12T21:51:00.826Z,1.40
2022-09-12T21:53:28.825Z,1.20
2022-09-12T21:56:01.141Z,1.47
2022-09-12T21:58:29.069Z,1.20
2022-09-12T22:00:57.096Z,1.40
2022-09-12T22:03:26.087Z,1.37
2022-09-12T22:05:57.998Z,1.23
2022-09-12T22:08:27.569Z,1.20
2022-09-12T22:10:59.031Z,1.10
2022-09-12T22:13:27.066Z,1.20
2022-09-12T22:15:55.011Z,1.00
2022-09-12T22:18:22.990Z,1.00
2022-09-12T22:20:51.092Z,1.03
2022-09-12T22:23:36.386Z,1.17
2022-09-12T22:26:05.773Z,1.20
2022-09-12T22:28:34.671Z,1.10
2022-09-12T22:31:02.598Z,1.07
2022-09-12T22:33:30.561Z,1.00
2022-09-12T22:35:58.423Z,1.20
2022-09-12T22:38:26.325Z,1.00
2022-09-12T22:40:54.445Z,1.00
2022-09-12T22:43:23.772Z,1.20
2022-09-12T22:45:52.348Z,1.10
2022-09-12T22:48:20.468Z,1.20
2022-09-12T22:50:48.371Z,1.20
2022-09-12T22:53:16.274Z,1.17
2022-09-12T22:55:44.432Z,1.20
2022-09-12T22:58:12.549Z,1.20
2022-09-12T23:00:47.392Z,1.10
2022-09-12T23:03:15.439Z,1.50
2022-09-12T23:05:43.504Z,1.40
2022-09-12T23:08:11.775Z,1.30
2022-09-12T23:10:40.184Z,1.33
2022-09-12T23:13:08.176Z,1.40
2022-09-12T23:15:36.141Z,1.40
2022-09-12T23:18:05.783Z,1.40
2022-09-12T23:20:33.667Z,1.17
2022-09-12T23:23:01.567Z,1.40
2022-09-12T23:25:29.452Z,1.43
2022-09-12T23:27:57.322Z,1.30
2022-09-12T23:30:25.217Z,1.40
2022-09-12T23:32:53.089Z,1.20
2022-09-12T23:35:22.367Z,1.20
2022-09-12T23:37:50.328Z,1.20
2022-09-12T23:40:18.548Z,1.30
2022-09-12T23:42:46.537Z,1.40
2022-09-12T23:45:14.411Z,1.20
2022-09-12T23:47:42.302Z,1.53
2022-09-12T23:50:10.434Z,1.50
2022-09-12T23:52:39.690Z,1.40
2022-09-12T23:55:08.412Z,1.20
2022-09-12T23:57:36.436Z,1.60
